sensor_id;sensor_type;location;lat;lon;timestamp;P1;durP1;ratioP1;P2;durP2;ratioP2
72904;SDS011;61048;52.162;4.516;2023-06-04T00:00:44;2.05;;;0.25;;
72904;SDS011;61048;52.162;4.516;2023-06-04T00:03:11;1.27;;;0.43;;
72904;SDS011;61048;52.162;4.516;2023-06-04T00:05:38;5.10;;;0.38;;
72904;SDS011;61048;52.162;4.516;2023-06-04T00:08:05;1.52;;;0.22;;
72904;SDS011;61048;52.162;4.516;2023-06-04T00:10:32;1.25;;;1.02;;
72904;SDS011;61048;52.162;4.516;2023-06-04T00:13:00;1.98;;;0.32;;
72904;SDS011;61048;52.162;4.516;2023-06-04T00:15:27;0.85;;;0.30;;
72904;SDS011;61048;52.162;4.516;2023-06-04T00:17:55;1.33;;;0.32;;
72904;SDS011;61048;52.162;4.516;2023-06-04T00:20:23;0.77;;;0.32;;
72904;SDS011;61048;52.162;4.516;2023-06-04T00:22:50;2.35;;;0.32;;
72904;SDS011;61048;52.162;4.516;2023-06-04T00:25:17;1.70;;;0.20;;
72904;SDS011;61048;52.162;4.516;2023-06-04T00:27:44;3.50;;;0.57;;
72904;SDS011;61048;52.162;4.516;2023-06-04T00:30:12;1.30;;;0.35;;
72904;SDS011;61048;52.162;4.516;2023-06-04T00:32:40;1.85;;;0.55;;
72904;SDS011;61048;52.162;4.516;2023-06-04T00:35:08;1.55;;;0.32;;
72904;SDS011;61048;52.162;4.516;2023-06-04T00:37:36;2.03;;;0.47;;
72904;SDS011;61048;52.162;4.516;2023-06-04T00:40:04;3.85;;;0.47;;
72904;SDS011;61048;52.162;4.516;2023-06-04T00:42:31;3.97;;;0.43;;
72904;SDS011;61048;52.162;4.516;2023-06-04T00:44:58;1.55;;;0.68;;
72904;SDS011;61048;52.162;4.516;2023-06-04T00:47:26;2.15;;;0.30;;
72904;SDS011;61048;52.162;4.516;2023-06-04T00:49:54;2.05;;;0.43;;
72904;SDS011;61048;52.162;4.516;2023-06-04T00:52:24;1.63;;;0.30;;
72904;SDS011;61048;52.162;4.516;2023-06-04T00:54:52;2.78;;;0.35;;
72904;SDS011;61048;52.162;4.516;2023-06-04T00:57:20;1.85;;;0.28;;
72904;SDS011;61048;52.162;4.516;2023-06-04T00:59:47;3.47;;;0.40;;
72904;SDS011;61048;52.162;4.516;2023-06-04T01:02:15;1.30;;;0.30;;
72904;SDS011;61048;52.162;4.516;2023-06-04T01:04:46;3.38;;;0.30;;
72904;SDS011;61048;52.162;4.516;2023-06-04T01:07:16;1.23;;;0.30;;
72904;SDS011;61048;52.162;4.516;2023-06-04T01:09:45;1.02;;;0.40;;
72904;SDS011;61048;52.162;4.516;2023-06-04T01:12:12;1.98;;;0.40;;
72904;SDS011;61048;52.162;4.516;2023-06-04T01:14:40;3.28;;;0.28;;
72904;SDS011;61048;52.162;4.516;2023-06-04T01:17:10;1.27;;;0.20;;
72904;SDS011;61048;52.162;4.516;2023-06-04T01:19:47;1.88;;;0.60;;
72904;SDS011;61048;52.162;4.516;2023-06-04T01:22:17;1.92;;;0.35;;
72904;SDS011;61048;52.162;4.516;2023-06-04T01:24:55;1.23;;;0.43;;
72904;SDS011;61048;52.162;4.516;2023-06-04T01:27:23;1.58;;;0.22;;
72904;SDS011;61048;52.162;4.516;2023-06-04T01:29:50;2.70;;;0.40;;
72904;SDS011;61048;52.162;4.516;2023-06-04T01:32:17;1.42;;;0.30;;
72904;SDS011;61048;52.162;4.516;2023-06-04T01:34:45;1.67;;;0.40;;
72904;SDS011;61048;52.162;4.516;2023-06-04T01:37:12;1.35;;;0.32;;
72904;SDS011;61048;52.162;4.516;2023-06-04T01:39:41;1.88;;;0.30;;
72904;SDS011;61048;52.162;4.516;2023-06-04T01:42:10;1.67;;;0.30;;
72904;SDS011;61048;52.162;4.516;2023-06-04T01:44:37;1.88;;;0.38;;
72904;SDS011;61048;52.162;4.516;2023-06-04T01:47:04;1.40;;;0.57;;
72904;SDS011;61048;52.162;4.516;2023-06-04T01:49:31;1.52;;;0.32;;
72904;SDS011;61048;52.162;4.516;2023-06-04T01:51:58;1.63;;;0.30;;
72904;SDS011;61048;52.162;4.516;2023-06-04T01:54:25;1.95;;;0.65;;
72904;SDS011;61048;52.162;4.516;2023-06-04T01:56:55;1.30;;;0.32;;
72904;SDS011;61048;52.162;4.516;2023-06-04T01:59:23;0.80;;;0.20;;
72904;SDS011;61048;52.162;4.516;2023-06-04T02:01:52;1.10;;;0.38;;
72904;SDS011;61048;52.162;4.516;2023-06-04T02:04:19;1.08;;;0.38;;
72904;SDS011;61048;52.162;4.516;2023-06-04T02:06:46;0.93;;;0.50;;
72904;SDS011;61048;52.162;4.516;2023-06-04T02:09:13;1.15;;;0.30;;
72904;SDS011;61048;52.162;4.516;2023-06-04T02:11:40;1.20;;;0.22;;
72904;SDS011;61048;52.162;4.516;2023-06-04T02:14:08;3.05;;;0.30;;
72904;SDS011;61048;52.162;4.516;2023-06-04T02:16:36;0.90;;;0.28;;
72904;SDS011;61048;52.162;4.516;2023-06-04T02:19:04;1.20;;;0.22;;
72904;SDS011;61048;52.162;4.516;2023-06-04T02:21:31;0.93;;;0.20;;
72904;SDS011;61048;52.162;4.516;2023-06-04T02:23:58;1.40;;;0.40;;
72904;SDS011;61048;52.162;4.516;2023-06-04T02:26:25;0.70;;;0.43;;
72904;SDS011;61048;52.162;4.516;2023-06-04T02:28:52;1.17;;;0.30;;
72904;SDS011;61048;52.162;4.516;2023-06-04T02:31:19;2.20;;;0.45;;
72904;SDS011;61048;52.162;4.516;2023-06-04T02:33:48;2.55;;;0.40;;
72904;SDS011;61048;52.162;4.516;2023-06-04T02:36:15;1.15;;;0.40;;
72904;SDS011;61048;52.162;4.516;2023-06-04T02:38:43;3.92;;;0.25;;
72904;SDS011;61048;52.162;4.516;2023-06-04T02:41:10;0.75;;;0.20;;
72904;SDS011;61048;52.162;4.516;2023-06-04T02:43:37;1.45;;;0.32;;
72904;SDS011;61048;52.162;4.516;2023-06-04T02:46:04;1.65;;;0.30;;
72904;SDS011;61048;52.162;4.516;2023-06-04T02:48:32;1.02;;;0.20;;
72904;SDS011;61048;52.162;4.516;2023-06-04T02:51:00;1.20;;;0.32;;
72904;SDS011;61048;52.162;4.516;2023-06-04T02:53:27;2.13;;;0.40;;
72904;SDS011;61048;52.162;4.516;2023-06-04T02:55:55;3.50;;;0.30;;
72904;SDS011;61048;52.162;4.516;2023-06-04T02:58:22;3.03;;;0.30;;
72904;SDS011;61048;52.162;4.516;2023-06-04T03:00:51;1.45;;;0.40;;
72904;SDS011;61048;52.162;4.516;2023-06-04T03:03:18;1.02;;;0.35;;
72904;SDS011;61048;52.162;4.516;2023-06-04T03:05:45;1.20;;;0.40;;
72904;SDS011;61048;52.162;4.516;2023-06-04T03:08:14;1.52;;;0.45;;
72904;SDS011;61048;52.162;4.516;2023-06-04T03:10:41;1.00;;;0.32;;
72904;SDS011;61048;52.162;4.516;2023-06-04T03:13:08;0.60;;;0.20;;
72904;SDS011;61048;52.162;4.516;2023-06-04T03:15:35;1.30;;;0.32;;
72904;SDS011;61048;52.162;4.516;2023-06-04T03:18:04;1.65;;;0.40;;
72904;SDS011;61048;52.162;4.516;2023-06-04T03:20:31;1.55;;;0.40;;
72904;SDS011;61048;52.162;4.516;2023-06-04T03:23:00;1.10;;;0.28;;
72904;SDS011;61048;52.162;4.516;2023-06-04T03:25:28;2.92;;;0.25;;
72904;SDS011;61048;52.162;4.516;2023-06-04T03:27:56;2.95;;;0.65;;
72904;SDS011;61048;52.162;4.516;2023-06-04T03:30:23;0.80;;;0.38;;
72904;SDS011;61048;52.162;4.516;2023-06-04T03:32:50;1.77;;;0.20;;
72904;SDS011;61048;52.162;4.516;2023-06-04T03:35:17;3.72;;;0.30;;
72904;SDS011;61048;52.162;4.516;2023-06-04T03:37:44;2.47;;;0.30;;
72904;SDS011;61048;52.162;4.516;2023-06-04T03:40:12;1.63;;;0.47;;
72904;SDS011;61048;52.162;4.516;2023-06-04T03:42:40;1.15;;;0.30;;
72904;SDS011;61048;52.162;4.516;2023-06-04T03:45:08;0.90;;;0.45;;
72904;SDS011;61048;52.162;4.516;2023-06-04T03:47:35;1.88;;;0.13;;
72904;SDS011;61048;52.162;4.516;2023-06-04T03:50:03;0.80;;;0.22;;
72904;SDS011;61048;52.162;4.516;2023-06-04T03:52:30;2.05;;;0.65;;
72904;SDS011;61048;52.162;4.516;2023-06-04T03:54:57;2.13;;;0.30;;
72904;SDS011;61048;52.162;4.516;2023-06-04T03:57:25;1.63;;;0.28;;
72904;SDS011;61048;52.162;4.516;2023-06-04T03:59:53;1.92;;;0.50;;
72904;SDS011;61048;52.162;4.516;2023-06-04T04:02:21;2.17;;;0.40;;
72904;SDS011;61048;52.162;4.516;2023-06-04T04:04:48;1.85;;;0.30;;
72904;SDS011;61048;52.162;4.516;2023-06-04T04:07:15;1.17;;;0.55;;
72904;SDS011;61048;52.162;4.516;2023-06-04T04:09:42;1.17;;;0.30;;
72904;SDS011;61048;52.162;4.516;2023-06-04T04:12:09;0.93;;;0.32;;
72904;SDS011;61048;52.162;4.516;2023-06-04T04:14:37;0.80;;;0.30;;
72904;SDS011;61048;52.162;4.516;2023-06-04T04:17:05;0.85;;;0.50;;
72904;SDS011;61048;52.162;4.516;2023-06-04T04:19:32;0.90;;;0.35;;
72904;SDS011;61048;52.162;4.516;2023-06-04T04:21:59;1.42;;;0.65;;
72904;SDS011;61048;52.162;4.516;2023-06-04T04:24:27;1.30;;;0.22;;
72904;SDS011;61048;52.162;4.516;2023-06-04T04:26:54;2.72;;;0.40;;
72904;SDS011;61048;52.162;4.516;2023-06-04T04:29:21;1.60;;;0.47;;
72904;SDS011;61048;52.162;4.516;2023-06-04T04:31:49;1.48;;;0.57;;
72904;SDS011;61048;52.162;4.516;2023-06-04T04:34:18;1.73;;;0.43;;
72904;SDS011;61048;52.162;4.516;2023-06-04T04:36:46;1.38;;;0.43;;
72904;SDS011;61048;52.162;4.516;2023-06-04T04:39:17;1.10;;;0.32;;
72904;SDS011;61048;52.162;4.516;2023-06-04T04:41:44;1.60;;;0.43;;
72904;SDS011;61048;52.162;4.516;2023-06-04T04:44:11;1.92;;;0.30;;
72904;SDS011;61048;52.162;4.516;2023-06-04T04:46:38;1.20;;;0.50;;
72904;SDS011;61048;52.162;4.516;2023-06-04T04:49:05;1.50;;;0.50;;
72904;SDS011;61048;52.162;4.516;2023-06-04T04:51:34;1.63;;;0.50;;
72904;SDS011;61048;52.162;4.516;2023-06-04T04:54:01;1.50;;;0.40;;
72904;SDS011;61048;52.162;4.516;2023-06-04T04:56:28;2.20;;;0.43;;
72904;SDS011;61048;52.162;4.516;2023-06-04T04:58:56;2.53;;;0.50;;
72904;SDS011;61048;52.162;4.516;2023-06-04T05:01:23;1.98;;;0.57;;
72904;SDS011;61048;52.162;4.516;2023-06-04T05:03:50;1.35;;;0.30;;
72904;SDS011;61048;52.162;4.516;2023-06-04T05:06:18;2.10;;;0.38;;
72904;SDS011;61048;52.162;4.516;2023-06-04T05:08:47;3.83;;;0.57;;
72904;SDS011;61048;52.162;4.516;2023-06-04T05:11:14;2.38;;;0.45;;
72904;SDS011;61048;52.162;4.516;2023-06-04T05:13:41;1.45;;;0.30;;
72904;SDS011;61048;52.162;4.516;2023-06-04T05:16:08;1.83;;;0.47;;
72904;SDS011;61048;52.162;4.516;2023-06-04T05:18:36;1.55;;;0.30;;
72904;SDS011;61048;52.162;4.516;2023-06-04T05:21:05;1.42;;;0.40;;
72904;SDS011;61048;52.162;4.516;2023-06-04T05:23:32;2.53;;;0.40;;
72904;SDS011;61048;52.162;4.516;2023-06-04T05:26:03;1.75;;;0.47;;
72904;SDS011;61048;52.162;4.516;2023-06-04T05:28:30;2.47;;;0.40;;
72904;SDS011;61048;52.162;4.516;2023-06-04T05:30:58;1.08;;;0.30;;
72904;SDS011;61048;52.162;4.516;2023-06-04T05:33:25;1.65;;;0.32;;
72904;SDS011;61048;52.162;4.516;2023-06-04T05:35:53;1.20;;;0.40;;
72904;SDS011;61048;52.162;4.516;2023-06-04T05:38:22;1.80;;;0.28;;
72904;SDS011;61048;52.162;4.516;2023-06-04T05:40:50;3.80;;;0.40;;
72904;SDS011;61048;52.162;4.516;2023-06-04T05:43:19;2.97;;;0.60;;
72904;SDS011;61048;52.162;4.516;2023-06-04T05:45:46;2.78;;;0.60;;
72904;SDS011;61048;52.162;4.516;2023-06-04T05:48:14;2.92;;;0.65;;
72904;SDS011;61048;52.162;4.516;2023-06-04T05:50:41;2.95;;;0.50;;
72904;SDS011;61048;52.162;4.516;2023-06-04T05:53:09;2.70;;;0.55;;
72904;SDS011;61048;52.162;4.516;2023-06-04T05:55:36;4.47;;;0.70;;
72904;SDS011;61048;52.162;4.516;2023-06-04T05:58:03;2.55;;;0.40;;
72904;SDS011;61048;52.162;4.516;2023-06-04T06:00:31;1.73;;;0.88;;
72904;SDS011;61048;52.162;4.516;2023-06-04T06:03:00;4.05;;;0.40;;
72904;SDS011;61048;52.162;4.516;2023-06-04T06:05:27;3.55;;;0.68;;
72904;SDS011;61048;52.162;4.516;2023-06-04T06:07:54;3.25;;;1.00;;
72904;SDS011;61048;52.162;4.516;2023-06-04T06:10:22;4.22;;;0.57;;
72904;SDS011;61048;52.162;4.516;2023-06-04T06:12:49;5.90;;;0.52;;
72904;SDS011;61048;52.162;4.516;2023-06-04T06:15:16;1.83;;;0.50;;
72904;SDS011;61048;52.162;4.516;2023-06-04T06:17:44;1.75;;;0.40;;
72904;SDS011;61048;52.162;4.516;2023-06-04T06:20:12;2.42;;;0.40;;
72904;SDS011;61048;52.162;4.516;2023-06-04T06:22:42;2.75;;;0.52;;
72904;SDS011;61048;52.162;4.516;2023-06-04T06:25:10;3.85;;;0.38;;
72904;SDS011;61048;52.162;4.516;2023-06-04T06:27:38;1.20;;;0.30;;
72904;SDS011;61048;52.162;4.516;2023-06-04T06:30:06;4.28;;;0.43;;
72904;SDS011;61048;52.162;4.516;2023-06-04T06:32:33;2.53;;;0.60;;
72904;SDS011;61048;52.162;4.516;2023-06-04T06:35:02;3.95;;;0.30;;
72904;SDS011;61048;52.162;4.516;2023-06-04T06:37:30;2.35;;;0.35;;
72904;SDS011;61048;52.162;4.516;2023-06-04T06:39:57;1.77;;;0.50;;
72904;SDS011;61048;52.162;4.516;2023-06-04T06:42:24;0.95;;;0.20;;
72904;SDS011;61048;52.162;4.516;2023-06-04T06:44:52;2.45;;;0.40;;
72904;SDS011;61048;52.162;4.516;2023-06-04T06:47:19;2.95;;;0.40;;
72904;SDS011;61048;52.162;4.516;2023-06-04T06:49:46;2.22;;;0.52;;
72904;SDS011;61048;52.162;4.516;2023-06-04T06:52:14;2.42;;;0.60;;
72904;SDS011;61048;52.162;4.516;2023-06-04T06:54:44;2.47;;;0.40;;
72904;SDS011;61048;52.162;4.516;2023-06-04T06:57:11;1.45;;;0.40;;
72904;SDS011;61048;52.162;4.516;2023-06-04T06:59:39;2.28;;;0.57;;
72904;SDS011;61048;52.162;4.516;2023-06-04T07:02:06;2.40;;;0.35;;
72904;SDS011;61048;52.162;4.516;2023-06-04T07:04:34;1.42;;;0.15;;
72904;SDS011;61048;52.162;4.516;2023-06-04T07:07:01;0.65;;;0.20;;
72904;SDS011;61048;52.162;4.516;2023-06-04T07:09:29;5.05;;;0.63;;
72904;SDS011;61048;52.162;4.516;2023-06-04T07:11:56;1.30;;;0.30;;
72904;SDS011;61048;52.162;4.516;2023-06-04T07:14:24;1.63;;;0.40;;
72904;SDS011;61048;52.162;4.516;2023-06-04T07:16:51;2.05;;;0.28;;
72904;SDS011;61048;52.162;4.516;2023-06-04T07:19:18;1.92;;;0.20;;
72904;SDS011;61048;52.162;4.516;2023-06-04T07:21:45;1.70;;;0.30;;
72904;SDS011;61048;52.162;4.516;2023-06-04T07:24:12;2.08;;;0.40;;
72904;SDS011;61048;52.162;4.516;2023-06-04T07:26:41;1.75;;;0.38;;
72904;SDS011;61048;52.162;4.516;2023-06-04T07:29:08;4.38;;;0.30;;
72904;SDS011;61048;52.162;4.516;2023-06-04T07:31:35;1.38;;;0.20;;
72904;SDS011;61048;52.162;4.516;2023-06-04T07:34:02;0.73;;;0.20;;
72904;SDS011;61048;52.162;4.516;2023-06-04T07:36:30;1.58;;;0.30;;
72904;SDS011;61048;52.162;4.516;2023-06-04T07:38:57;3.50;;;0.20;;
72904;SDS011;61048;52.162;4.516;2023-06-04T07:41:25;1.67;;;0.30;;
72904;SDS011;61048;52.162;4.516;2023-06-04T07:43:53;4.18;;;0.35;;
72904;SDS011;61048;52.162;4.516;2023-06-04T07:46:20;1.88;;;0.30;;
72904;SDS011;61048;52.162;4.516;2023-06-04T07:48:47;1.75;;;0.30;;
72904;SDS011;61048;52.162;4.516;2023-06-04T07:51:15;2.67;;;0.30;;
72904;SDS011;61048;52.162;4.516;2023-06-04T07:53:43;1.17;;;0.20;;
72904;SDS011;61048;52.162;4.516;2023-06-04T07:56:10;1.27;;;0.30;;
72904;SDS011;61048;52.162;4.516;2023-06-04T07:58:37;1.20;;;0.20;;
72904;SDS011;61048;52.162;4.516;2023-06-04T08:01:07;2.67;;;0.30;;
72904;SDS011;61048;52.162;4.516;2023-06-04T08:03:34;2.50;;;0.45;;
72904;SDS011;61048;52.162;4.516;2023-06-04T08:06:01;1.20;;;0.22;;
72904;SDS011;61048;52.162;4.516;2023-06-04T08:08:29;1.23;;;0.22;;
72904;SDS011;61048;52.162;4.516;2023-06-04T08:10:56;4.35;;;0.40;;
72904;SDS011;61048;52.162;4.516;2023-06-04T08:13:23;2.28;;;0.73;;
72904;SDS011;61048;52.162;4.516;2023-06-04T08:15:51;3.60;;;0.40;;
72904;SDS011;61048;52.162;4.516;2023-06-04T08:18:19;1.92;;;0.30;;
72904;SDS011;61048;52.162;4.516;2023-06-04T08:20:46;2.05;;;0.32;;
72904;SDS011;61048;52.162;4.516;2023-06-04T08:23:13;2.63;;;0.28;;
72904;SDS011;61048;52.162;4.516;2023-06-04T08:25:41;1.33;;;0.28;;
72904;SDS011;61048;52.162;4.516;2023-06-04T08:28:08;2.10;;;0.25;;
72904;SDS011;61048;52.162;4.516;2023-06-04T08:30:35;1.60;;;0.40;;
72904;SDS011;61048;52.162;4.516;2023-06-04T08:33:02;1.95;;;0.30;;
72904;SDS011;61048;52.162;4.516;2023-06-04T08:35:31;2.53;;;0.40;;
72904;SDS011;61048;52.162;4.516;2023-06-04T08:37:58;1.13;;;0.25;;
72904;SDS011;61048;52.162;4.516;2023-06-04T08:40:25;1.17;;;0.43;;
72904;SDS011;61048;52.162;4.516;2023-06-04T08:42:53;1.77;;;0.38;;
72904;SDS011;61048;52.162;4.516;2023-06-04T08:45:23;1.13;;;0.25;;
72904;SDS011;61048;52.162;4.516;2023-06-04T08:47:52;2.90;;;0.25;;
72904;SDS011;61048;52.162;4.516;2023-06-04T08:50:20;1.90;;;0.30;;
72904;SDS011;61048;52.162;4.516;2023-06-04T08:52:49;1.85;;;0.30;;
72904;SDS011;61048;52.162;4.516;2023-06-04T08:55:18;13.25;;;1.73;;
72904;SDS011;61048;52.162;4.516;2023-06-04T08:57:45;11.73;;;0.60;;
72904;SDS011;61048;52.162;4.516;2023-06-04T09:00:14;15.20;;;2.30;;
72904;SDS011;61048;52.162;4.516;2023-06-04T09:02:41;17.13;;;3.45;;
72904;SDS011;61048;52.162;4.516;2023-06-04T09:05:09;12.27;;;2.03;;
72904;SDS011;61048;52.162;4.516;2023-06-04T09:07:38;27.52;;;4.50;;
72904;SDS011;61048;52.162;4.516;2023-06-04T09:10:07;9.32;;;2.00;;
72904;SDS011;61048;52.162;4.516;2023-06-04T09:15:05;19.00;;;3.72;;
72904;SDS011;61048;52.162;4.516;2023-06-04T09:17:32;13.80;;;3.35;;
72904;SDS011;61048;52.162;4.516;2023-06-04T09:20:00;20.23;;;3.50;;
72904;SDS011;61048;52.162;4.516;2023-06-04T09:22:34;14.48;;;3.25;;
72904;SDS011;61048;52.162;4.516;2023-06-04T09:25:03;13.07;;;3.10;;
72904;SDS011;61048;52.162;4.516;2023-06-04T09:27:38;7.25;;;2.25;;
72904;SDS011;61048;52.162;4.516;2023-06-04T09:30:06;10.40;;;2.83;;
72904;SDS011;61048;52.162;4.516;2023-06-04T09:32:34;15.82;;;2.88;;
72904;SDS011;61048;52.162;4.516;2023-06-04T09:35:11;9.00;;;2.38;;
72904;SDS011;61048;52.162;4.516;2023-06-04T09:37:39;5.82;;;1.55;;
72904;SDS011;61048;52.162;4.516;2023-06-04T09:40:06;7.65;;;1.92;;
72904;SDS011;61048;52.162;4.516;2023-06-04T09:42:44;6.22;;;1.63;;
72904;SDS011;61048;52.162;4.516;2023-06-04T09:45:25;6.55;;;1.90;;
72904;SDS011;61048;52.162;4.516;2023-06-04T09:47:53;7.95;;;1.10;;
72904;SDS011;61048;52.162;4.516;2023-06-04T09:50:24;5.63;;;1.40;;
72904;SDS011;61048;52.162;4.516;2023-06-04T09:52:51;4.07;;;1.10;;
72904;SDS011;61048;52.162;4.516;2023-06-04T09:55:19;4.07;;;1.08;;
72904;SDS011;61048;52.162;4.516;2023-06-04T09:57:49;8.18;;;1.20;;
72904;SDS011;61048;52.162;4.516;2023-06-04T10:00:17;4.15;;;1.00;;
72904;SDS011;61048;52.162;4.516;2023-06-04T10:02:46;4.60;;;1.02;;
72904;SDS011;61048;52.162;4.516;2023-06-04T10:05:13;7.68;;;1.08;;
72904;SDS011;61048;52.162;4.516;2023-06-04T10:07:41;3.45;;;0.60;;
72904;SDS011;61048;52.162;4.516;2023-06-04T10:10:10;3.03;;;0.70;;
72904;SDS011;61048;52.162;4.516;2023-06-04T10:12:38;5.28;;;0.70;;
72904;SDS011;61048;52.162;4.516;2023-06-04T10:15:07;3.83;;;0.70;;
72904;SDS011;61048;52.162;4.516;2023-06-04T10:17:37;5.45;;;0.65;;
72904;SDS011;61048;52.162;4.516;2023-06-04T10:20:05;2.80;;;0.57;;
72904;SDS011;61048;52.162;4.516;2023-06-04T10:22:34;2.53;;;0.50;;
72904;SDS011;61048;52.162;4.516;2023-06-04T10:25:01;4.20;;;0.70;;
72904;SDS011;61048;52.162;4.516;2023-06-04T10:27:29;3.60;;;0.57;;
72904;SDS011;61048;52.162;4.516;2023-06-04T10:29:57;1.60;;;0.40;;
72904;SDS011;61048;52.162;4.516;2023-06-04T10:32:27;3.92;;;0.63;;
72904;SDS011;61048;52.162;4.516;2023-06-04T10:34:55;2.45;;;0.57;;
72904;SDS011;61048;52.162;4.516;2023-06-04T10:37:22;1.90;;;0.50;;
72904;SDS011;61048;52.162;4.516;2023-06-04T10:39:50;3.08;;;0.43;;
72904;SDS011;61048;52.162;4.516;2023-06-04T10:42:18;1.98;;;0.40;;
72904;SDS011;61048;52.162;4.516;2023-06-04T10:44:47;1.88;;;0.30;;
72904;SDS011;61048;52.162;4.516;2023-06-04T10:47:20;2.20;;;0.40;;
72904;SDS011;61048;52.162;4.516;2023-06-04T10:49:49;2.13;;;0.40;;
72904;SDS011;61048;52.162;4.516;2023-06-04T10:52:17;1.27;;;0.40;;
72904;SDS011;61048;52.162;4.516;2023-06-04T10:54:45;0.98;;;0.50;;
72904;SDS011;61048;52.162;4.516;2023-06-04T10:57:14;3.72;;;0.65;;
72904;SDS011;61048;52.162;4.516;2023-06-04T10:59:42;1.65;;;0.40;;
72904;SDS011;61048;52.162;4.516;2023-06-04T11:02:20;3.88;;;0.52;;
72904;SDS011;61048;52.162;4.516;2023-06-04T11:04:47;2.40;;;0.52;;
72904;SDS011;61048;52.162;4.516;2023-06-04T11:07:16;1.55;;;0.35;;
72904;SDS011;61048;52.162;4.516;2023-06-04T11:09:47;3.08;;;0.40;;
72904;SDS011;61048;52.162;4.516;2023-06-04T11:12:14;0.93;;;0.30;;
72904;SDS011;61048;52.162;4.516;2023-06-04T11:14:52;1.10;;;0.30;;
72904;SDS011;61048;52.162;4.516;2023-06-04T11:17:20;2.47;;;0.43;;
72904;SDS011;61048;52.162;4.516;2023-06-04T11:19:47;1.80;;;0.32;;
72904;SDS011;61048;52.162;4.516;2023-06-04T11:22:16;1.98;;;0.45;;
72904;SDS011;61048;52.162;4.516;2023-06-04T11:24:43;1.15;;;0.20;;
72904;SDS011;61048;52.162;4.516;2023-06-04T11:27:11;1.80;;;0.30;;
72904;SDS011;61048;52.162;4.516;2023-06-04T11:29:38;1.75;;;0.45;;
72904;SDS011;61048;52.162;4.516;2023-06-04T11:32:05;1.95;;;0.25;;
72904;SDS011;61048;52.162;4.516;2023-06-04T11:34:32;2.40;;;0.45;;
72904;SDS011;61048;52.162;4.516;2023-06-04T11:37:09;2.15;;;0.28;;
72904;SDS011;61048;52.162;4.516;2023-06-04T11:39:37;1.08;;;0.30;;
72904;SDS011;61048;52.162;4.516;2023-06-04T11:42:06;3.17;;;0.57;;
72904;SDS011;61048;52.162;4.516;2023-06-04T11:44:33;2.20;;;0.47;;
72904;SDS011;61048;52.162;4.516;2023-06-04T11:47:00;2.97;;;0.50;;
72904;SDS011;61048;52.162;4.516;2023-06-04T11:49:27;2.70;;;0.32;;
72904;SDS011;61048;52.162;4.516;2023-06-04T11:51:55;1.55;;;0.30;;
72904;SDS011;61048;52.162;4.516;2023-06-04T11:54:22;2.53;;;0.30;;
72904;SDS011;61048;52.162;4.516;2023-06-04T11:56:51;1.90;;;0.30;;
72904;SDS011;61048;52.162;4.516;2023-06-04T11:59:18;1.30;;;0.30;;
72904;SDS011;61048;52.162;4.516;2023-06-04T12:01:46;2.45;;;0.43;;
72904;SDS011;61048;52.162;4.516;2023-06-04T12:04:15;2.88;;;0.50;;
72904;SDS011;61048;52.162;4.516;2023-06-04T12:06:51;1.55;;;0.30;;
72904;SDS011;61048;52.162;4.516;2023-06-04T12:09:20;2.33;;;0.35;;
72904;SDS011;61048;52.162;4.516;2023-06-04T12:11:47;1.20;;;0.40;;
72904;SDS011;61048;52.162;4.516;2023-06-04T12:14:16;1.50;;;0.40;;
72904;SDS011;61048;52.162;4.516;2023-06-04T12:16:53;3.22;;;0.30;;
72904;SDS011;61048;52.162;4.516;2023-06-04T12:19:21;2.40;;;0.50;;
72904;SDS011;61048;52.162;4.516;2023-06-04T12:21:58;3.22;;;0.50;;
72904;SDS011;61048;52.162;4.516;2023-06-04T12:24:26;1.88;;;0.47;;
72904;SDS011;61048;52.162;4.516;2023-06-04T12:27:00;2.80;;;0.40;;
72904;SDS011;61048;52.162;4.516;2023-06-04T12:29:29;6.15;;;0.60;;
72904;SDS011;61048;52.162;4.516;2023-06-04T12:32:03;4.93;;;0.40;;
72904;SDS011;61048;52.162;4.516;2023-06-04T12:34:31;1.58;;;0.40;;
72904;SDS011;61048;52.162;4.516;2023-06-04T12:36:58;3.67;;;0.47;;
72904;SDS011;61048;52.162;4.516;2023-06-04T12:39:25;1.55;;;0.40;;
72904;SDS011;61048;52.162;4.516;2023-06-04T12:41:52;2.55;;;0.30;;
72904;SDS011;61048;52.162;4.516;2023-06-04T12:44:20;2.40;;;0.40;;
72904;SDS011;61048;52.162;4.516;2023-06-04T12:46:48;2.15;;;0.40;;
72904;SDS011;61048;52.162;4.516;2023-06-04T12:49:15;2.80;;;0.50;;
72904;SDS011;61048;52.162;4.516;2023-06-04T12:51:42;3.15;;;0.60;;
72904;SDS011;61048;52.162;4.516;2023-06-04T12:54:10;2.42;;;0.60;;
72904;SDS011;61048;52.162;4.516;2023-06-04T12:56:39;1.73;;;0.57;;
72904;SDS011;61048;52.162;4.516;2023-06-04T12:59:06;1.80;;;0.52;;
72904;SDS011;61048;52.162;4.516;2023-06-04T13:01:33;3.38;;;0.50;;
72904;SDS011;61048;52.162;4.516;2023-06-04T13:04:03;1.40;;;0.60;;
72904;SDS011;61048;52.162;4.516;2023-06-04T13:06:31;1.10;;;0.28;;
72904;SDS011;61048;52.162;4.516;2023-06-04T13:08:58;1.52;;;0.45;;
72904;SDS011;61048;52.162;4.516;2023-06-04T13:11:25;2.53;;;0.40;;
72904;SDS011;61048;52.162;4.516;2023-06-04T13:13:53;1.75;;;0.40;;
72904;SDS011;61048;52.162;4.516;2023-06-04T13:16:20;2.38;;;0.68;;
72904;SDS011;61048;52.162;4.516;2023-06-04T13:18:47;1.30;;;0.35;;
72904;SDS011;61048;52.162;4.516;2023-06-04T13:21:15;2.20;;;0.52;;
72904;SDS011;61048;52.162;4.516;2023-06-04T13:23:42;2.70;;;0.50;;
72904;SDS011;61048;52.162;4.516;2023-06-04T13:26:10;3.60;;;0.55;;
72904;SDS011;61048;52.162;4.516;2023-06-04T13:28:37;2.33;;;0.60;;
72904;SDS011;61048;52.162;4.516;2023-06-04T13:31:04;2.10;;;0.40;;
72904;SDS011;61048;52.162;4.516;2023-06-04T13:33:31;2.15;;;0.50;;
72904;SDS011;61048;52.162;4.516;2023-06-04T13:35:59;3.03;;;0.93;;
72904;SDS011;61048;52.162;4.516;2023-06-04T13:38:27;2.92;;;0.60;;
72904;SDS011;61048;52.162;4.516;2023-06-04T13:40:55;3.38;;;0.50;;
72904;SDS011;61048;52.162;4.516;2023-06-04T13:43:22;2.30;;;0.50;;
72904;SDS011;61048;52.162;4.516;2023-06-04T13:45:49;1.77;;;0.40;;
72904;SDS011;61048;52.162;4.516;2023-06-04T13:48:16;2.90;;;0.80;;
72904;SDS011;61048;52.162;4.516;2023-06-04T13:50:43;2.95;;;0.60;;
72904;SDS011;61048;52.162;4.516;2023-06-04T13:53:11;1.50;;;0.40;;
72904;SDS011;61048;52.162;4.516;2023-06-04T13:55:39;2.45;;;0.50;;
72904;SDS011;61048;52.162;4.516;2023-06-04T13:58:07;6.07;;;0.40;;
72904;SDS011;61048;52.162;4.516;2023-06-04T14:00:34;5.70;;;0.90;;
72904;SDS011;61048;52.162;4.516;2023-06-04T14:03:01;2.83;;;0.40;;
72904;SDS011;61048;52.162;4.516;2023-06-04T14:05:28;3.08;;;0.40;;
72904;SDS011;61048;52.162;4.516;2023-06-04T14:07:55;2.60;;;0.45;;
72904;SDS011;61048;52.162;4.516;2023-06-04T14:10:23;4.40;;;0.50;;
72904;SDS011;61048;52.162;4.516;2023-06-04T14:12:51;2.58;;;0.45;;
72904;SDS011;61048;52.162;4.516;2023-06-04T14:15:18;2.75;;;0.55;;
72904;SDS011;61048;52.162;4.516;2023-06-04T14:17:47;2.40;;;0.52;;
72904;SDS011;61048;52.162;4.516;2023-06-04T14:20:14;2.90;;;0.80;;
72904;SDS011;61048;52.162;4.516;2023-06-04T14:22:41;2.83;;;0.70;;
72904;SDS011;61048;52.162;4.516;2023-06-04T14:25:09;4.00;;;0.63;;
72904;SDS011;61048;52.162;4.516;2023-06-04T14:27:36;5.05;;;0.63;;
72904;SDS011;61048;52.162;4.516;2023-06-04T14:30:05;3.20;;;0.70;;
72904;SDS011;61048;52.162;4.516;2023-06-04T14:32:33;2.55;;;0.65;;
72904;SDS011;61048;52.162;4.516;2023-06-04T14:35:01;4.18;;;0.80;;
72904;SDS011;61048;52.162;4.516;2023-06-04T14:37:28;2.60;;;0.52;;
72904;SDS011;61048;52.162;4.516;2023-06-04T14:39:55;3.30;;;0.50;;
72904;SDS011;61048;52.162;4.516;2023-06-04T14:42:22;3.67;;;0.60;;
72904;SDS011;61048;52.162;4.516;2023-06-04T14:44:50;1.50;;;0.38;;
72904;SDS011;61048;52.162;4.516;2023-06-04T14:47:18;2.35;;;0.63;;
72904;SDS011;61048;52.162;4.516;2023-06-04T14:49:45;3.95;;;0.82;;
72904;SDS011;61048;52.162;4.516;2023-06-04T14:52:12;3.17;;;0.60;;
72904;SDS011;61048;52.162;4.516;2023-06-04T14:54:40;2.35;;;0.50;;